Time;durP1;ratioP1;P1;durP2;ratioP2;P2;SDS_P1;SDS_P2;PMS_P1;PMS_P2;Temp;Humidity;BMP_temperature;BMP_pressure;BME280_temperature;BME280_humidity;BME280_pressure;Samples;Min_cycle;Max_cycle;Signal;HPM_P1;HPM_P2
2023/05/14 00:00:59;;;;;;;32.00;19.05;;;13.60;99.90;;;;;;5022081;28;20489;-73
2023/05/14 00:03:26;;;;;;;30.25;19.10;;;13.60;99.90;;;;;;5041300;28;20052;-75
2023/05/14 00:05:54;;;;;;;30.55;18.35;;;13.60;99.90;;;;;;5041406;28;20083;-75
2023/05/14 00:08:21;;;;;;;26.70;17.30;;;13.60;99.90;;;;;;5041901;28;20640;-74
2023/05/14 00:10:48;;;;;;;26.23;18.17;;;13.60;99.90;;;;;;5040943;28;20037;-75
2023/05/14 00:13:17;;;;;;;25.70;18.10;;;13.60;99.90;;;;;;5041333;28;20497;-74
2023/05/14 00:15:44;;;;;;;27.15;18.50;;;13.60;99.90;;;;;;5038091;28;21562;-76
2023/05/14 00:18:12;;;;;;;23.95;17.65;;;13.60;99.90;;;;;;5042001;28;20684;-74
2023/05/14 00:20:39;;;;;;;35.13;24.08;;;13.60;99.90;;;;;;5044091;28;20097;-75
2023/05/14 00:23:07;;;;;;;26.45;17.25;;;13.60;99.90;;;;;;5060557;28;20037;-73
2023/05/14 00:25:34;;;;;;;23.00;17.30;;;13.60;99.90;;;;;;5059020;28;20104;-74
2023/05/14 00:28:01;;;;;;;23.45;17.13;;;13.60;99.90;;;;;;5046628;28;20060;-74
2023/05/14 00:30:30;;;;;;;30.27;19.98;;;13.60;99.90;;;;;;5043355;28;20049;-75
2023/05/14 00:32:58;;;;;;;31.55;20.83;;;13.60;99.90;;;;;;5040120;28;20041;-74
2023/05/14 00:35:25;;;;;;;32.10;21.05;;;13.60;99.90;;;;;;5023395;28;20143;-75
2023/05/14 00:37:52;;;;;;;25.50;18.35;;;13.60;99.90;;;;;;5042951;28;20048;-76
2023/05/14 00:40:20;;;;;;;34.83;22.55;;;13.60;99.90;;;;;;5042113;28;20041;-73
2023/05/14 00:42:48;;;;;;;27.48;18.35;;;13.60;99.90;;;;;;5040397;28;20068;-76
2023/05/14 00:45:15;;;;;;;29.50;17.40;;;13.60;99.90;;;;;;5043467;28;20047;-74
2023/05/14 00:47:44;;;;;;;24.00;17.58;;;13.60;99.90;;;;;;5044413;28;20087;-75
2023/05/14 00:50:12;;;;;;;25.05;16.75;;;13.60;99.90;;;;;;5047059;28;20056;-73
2023/05/14 00:52:40;;;;;;;22.92;17.25;;;13.50;99.90;;;;;;5043973;28;20088;-74
2023/05/14 00:55:10;;;;;;;25.88;17.88;;;13.50;99.90;;;;;;5023044;28;20046;-75
2023/05/14 00:57:38;;;;;;;27.17;18.42;;;13.50;99.90;;;;;;5023625;28;20045;-76
2023/05/14 01:00:07;;;;;;;26.42;17.70;;;13.50;99.90;;;;;;5038542;28;20563;-74
2023/05/14 01:02:35;;;;;;;26.70;18.05;;;13.50;99.90;;;;;;5040632;28;20073;-74
2023/05/14 01:05:04;;;;;;;28.20;18.02;;;13.50;99.90;;;;;;5022653;28;20038;-75
2023/05/14 01:07:39;;;;;;;29.23;18.17;;;13.60;99.90;;;;;;5022342;28;20048;-74
2023/05/14 01:10:24;;;;;;;29.60;19.07;;;13.50;99.90;;;;;;5037809;28;20033;-74
2023/05/14 01:13:00;;;;;;;31.70;18.65;;;13.50;99.90;;;;;;5040218;28;20650;-74
2023/05/14 01:15:31;;;;;;;35.47;18.90;;;13.50;99.90;;;;;;5038647;28;20042;-75
2023/05/14 01:18:01;;;;;;;31.20;17.55;;;13.50;99.90;;;;;;5038389;28;20405;-75
2023/05/14 01:20:30;;;;;;;26.88;16.50;;;13.50;99.90;;;;;;5038292;28;20037;-75
2023/05/14 01:22:59;;;;;;;25.25;14.98;;;13.40;99.90;;;;;;5035455;28;20536;-75
2023/05/14 01:25:27;;;;;;;25.60;15.95;;;13.40;99.90;;;;;;5022239;28;20037;-75
2023/05/14 01:28:03;;;;;;;24.17;15.88;;;13.40;99.90;;;;;;5039759;28;20056;-73
2023/05/14 01:30:34;;;;;;;23.70;15.55;;;13.40;99.90;;;;;;5038665;28;20045;-75
2023/05/14 01:33:06;;;;;;;23.75;15.65;;;13.50;99.90;;;;;;5022710;28;20060;-74
2023/05/14 01:35:34;;;;;;;19.67;14.90;;;13.50;99.90;;;;;;5039998;28;20623;-74
2023/05/14 01:38:05;;;;;;;21.45;14.32;;;13.50;99.90;;;;;;5021484;28;20131;-75
2023/05/14 01:40:33;;;;;;;23.33;16.00;;;13.40;99.90;;;;;;5020652;28;20045;-75
2023/05/14 01:43:02;;;;;;;23.08;15.15;;;13.40;99.90;;;;;;5039210;28;20049;-76
2023/05/14 01:45:31;;;;;;;24.88;15.63;;;13.40;99.90;;;;;;5021013;28;20049;-76
2023/05/14 01:47:59;;;;;;;27.35;14.80;;;13.40;99.90;;;;;;5040199;28;20045;-74
2023/05/14 01:50:27;;;;;;;19.77;13.50;;;13.50;99.90;;;;;;5039902;28;20064;-74
2023/05/14 01:52:55;;;;;;;18.27;13.13;;;13.40;99.90;;;;;;5021314;28;20037;-75
2023/05/14 01:55:24;;;;;;;19.58;13.55;;;13.40;99.90;;;;;;5021123;28;20163;-74
2023/05/14 01:57:52;;;;;;;21.88;12.90;;;13.40;99.90;;;;;;5020064;28;20037;-75
2023/05/14 02:00:19;;;;;;;20.00;12.63;;;13.40;99.90;;;;;;5021305;28;20052;-74
2023/05/14 02:02:47;;;;;;;16.35;11.93;;;13.40;99.90;;;;;;5039735;28;20037;-76
2023/05/14 02:05:14;;;;;;;16.80;11.55;;;13.50;99.90;;;;;;5040117;28;20041;-74
2023/05/14 02:07:42;;;;;;;15.32;11.07;;;13.40;99.90;;;;;;5039300;28;20052;-74
2023/05/14 02:10:10;;;;;;;18.70;11.20;;;13.40;99.90;;;;;;5036938;28;20041;-75
2023/05/14 02:12:39;;;;;;;20.40;11.32;;;13.40;99.90;;;;;;5038810;28;20041;-75
2023/05/14 02:15:09;;;;;;;15.43;10.63;;;13.50;99.90;;;;;;5037935;28;20088;-74
2023/05/14 02:17:37;;;;;;;22.02;10.48;;;13.50;99.90;;;;;;5039466;28;20056;-75
2023/05/14 02:20:05;;;;;;;14.07;10.02;;;13.40;99.90;;;;;;5039024;28;20494;-75
2023/05/14 02:22:33;;;;;;;15.45;10.20;;;13.40;99.90;;;;;;5019697;28;20160;-75
2023/05/14 02:25:01;;;;;;;13.50;9.77;;;13.40;99.90;;;;;;5021174;28;20037;-75
2023/05/14 02:27:28;;;;;;;15.07;9.57;;;13.40;99.90;;;;;;5038719;28;20330;-75
2023/05/14 02:29:59;;;;;;;15.73;9.77;;;13.40;99.90;;;;;;5039528;28;20041;-76
2023/05/14 02:32:27;;;;;;;13.63;9.63;;;13.40;99.90;;;;;;5056040;28;20064;-75
2023/05/14 02:34:54;;;;;;;13.43;9.52;;;13.50;99.90;;;;;;5034981;28;20060;-76
2023/05/14 02:37:22;;;;;;;13.77;9.30;;;13.50;99.90;;;;;;5045798;28;20041;-76
2023/05/14 02:39:49;;;;;;;13.23;9.10;;;13.50;99.90;;;;;;5040328;28;20079;-75
2023/05/14 02:42:17;;;;;;;13.40;9.45;;;13.50;99.90;;;;;;5039075;28;20214;-76
2023/05/14 02:44:44;;;;;;;14.57;9.95;;;13.40;99.90;;;;;;5039450;28;20052;-74
2023/05/14 02:47:13;;;;;;;17.63;10.13;;;13.40;99.90;;;;;;5043243;28;20072;-75
2023/05/14 02:49:40;;;;;;;16.25;10.10;;;13.40;99.90;;;;;;5043575;28;20041;-76
2023/05/14 02:52:08;;;;;;;11.25;8.25;;;13.50;99.90;;;;;;5057933;28;20101;-75
2023/05/14 02:54:37;;;;;;;11.02;8.63;;;13.50;99.90;;;;;;5042067;28;20049;-75
2023/05/14 02:57:04;;;;;;;12.40;9.25;;;13.50;99.90;;;;;;5040514;28;20129;-75
2023/05/14 02:59:32;;;;;;;12.60;8.77;;;13.40;99.90;;;;;;5019486;28;20045;-76
2023/05/14 03:01:59;;;;;;;14.55;8.95;;;13.40;99.90;;;;;;5019473;28;20049;-75
2023/05/14 03:04:28;;;;;;;12.15;7.97;;;13.40;99.90;;;;;;5018980;28;20375;-75
2023/05/14 03:06:55;;;;;;;13.02;8.65;;;13.40;99.90;;;;;;5036231;28;20140;-76
2023/05/14 03:09:23;;;;;;;13.88;8.60;;;13.30;99.90;;;;;;5019466;28;20072;-75
2023/05/14 03:11:51;;;;;;;12.73;8.68;;;13.30;99.90;;;;;;5019789;28;20140;-76
2023/05/14 03:14:18;;;;;;;14.70;8.38;;;13.30;99.90;;;;;;5035324;28;20452;-76
2023/05/14 03:16:45;;;;;;;12.45;8.10;;;13.30;99.90;;;;;;5018487;28;20045;-76
2023/05/14 03:19:13;;;;;;;11.48;8.52;;;13.30;99.90;;;;;;5036046;28;20116;-76
2023/05/14 03:21:42;;;;;;;12.57;9.15;;;13.30;99.90;;;;;;5038251;28;20053;-76
2023/05/14 03:24:09;;;;;;;16.27;9.02;;;13.30;99.90;;;;;;5019392;28;20049;-77
2023/05/14 03:26:38;;;;;;;14.05;9.23;;;13.30;99.90;;;;;;5038645;28;20614;-75
2023/05/14 03:29:05;;;;;;;14.35;9.82;;;13.20;99.90;;;;;;5019126;28;20481;-75
2023/05/14 03:31:33;;;;;;;15.38;9.85;;;13.30;99.90;;;;;;5019291;28;20390;-75
2023/05/14 03:34:00;;;;;;;16.52;10.02;;;13.30;99.90;;;;;;5019978;28;20038;-75
2023/05/14 03:36:28;;;;;;;15.20;10.52;;;13.30;99.90;;;;;;5036725;28;20045;-75
2023/05/14 03:38:57;;;;;;;14.43;9.60;;;13.40;99.90;;;;;;5040382;28;20052;-75
2023/05/14 03:41:25;;;;;;;13.13;9.52;;;13.30;99.90;;;;;;5027017;28;20145;-75
2023/05/14 03:43:52;;;;;;;12.43;9.38;;;13.30;99.90;;;;;;5025000;28;20051;-74
2023/05/14 03:46:20;;;;;;;12.40;8.88;;;13.30;99.90;;;;;;5021262;28;20248;-77
2023/05/14 03:48:47;;;;;;;13.48;9.27;;;13.30;99.90;;;;;;5037248;28;20045;-77
2023/05/14 03:51:15;;;;;;;12.63;8.70;;;13.30;99.90;;;;;;5019626;28;20135;-77
2023/05/14 03:53:43;;;;;;;10.57;8.18;;;13.30;99.90;;;;;;5019988;28;20459;-75
2023/05/14 03:56:12;;;;;;;10.13;8.02;;;13.40;99.90;;;;;;5021203;28;20147;-76
2023/05/14 03:58:40;;;;;;;11.73;8.05;;;13.40;99.90;;;;;;5036988;28;20787;-75
2023/05/14 04:01:07;;;;;;;16.10;8.18;;;13.40;99.90;;;;;;5022480;28;20116;-76
2023/05/14 04:03:34;;;;;;;12.75;7.53;;;13.40;99.90;;;;;;5039205;28;20050;-75
2023/05/14 04:06:02;;;;;;;12.60;7.53;;;13.40;99.90;;;;;;5039997;28;20128;-76
2023/05/14 04:08:29;;;;;;;11.65;7.05;;;13.40;99.90;;;;;;5018584;28;20098;-76
2023/05/14 04:10:57;;;;;;;11.80;6.88;;;13.40;99.90;;;;;;5037726;28;20044;-76
2023/05/14 04:13:26;;;;;;;11.48;6.57;;;13.50;99.90;;;;;;5038496;28;20132;-75
2023/05/14 04:15:54;;;;;;;8.88;6.03;;;13.50;99.90;;;;;;5018322;28;20061;-76
2023/05/14 04:18:22;;;;;;;10.07;6.53;;;13.50;99.90;;;;;;5036854;28;20393;-75
2023/05/14 04:20:49;;;;;;;11.02;6.45;;;13.50;99.90;;;;;;5018992;28;20045;-76
2023/05/14 04:23:17;;;;;;;9.55;6.35;;;13.60;99.90;;;;;;5018473;28;20141;-76
2023/05/14 04:25:44;;;;;;;10.23;6.13;;;13.60;99.90;;;;;;5036496;28;20502;-76
2023/05/14 04:28:11;;;;;;;7.68;5.53;;;13.60;99.90;;;;;;5039089;28;20045;-77
2023/05/14 04:30:40;;;;;;;6.47;5.18;;;13.60;99.90;;;;;;5041168;28;20497;-76
2023/05/14 04:33:08;;;;;;;10.55;5.25;;;13.60;99.90;;;;;;5041228;28;20041;-75
2023/05/14 04:35:35;;;;;;;7.63;5.63;;;13.70;99.90;;;;;;5041481;28;20056;-78
2023/05/14 04:38:03;;;;;;;8.30;5.95;;;13.60;99.90;;;;;;5038958;28;20080;-75
2023/05/14 04:40:30;;;;;;;8.00;5.57;;;13.70;99.90;;;;;;5043354;28;20040;-74
2023/05/14 04:42:58;;;;;;;9.55;6.18;;;13.70;99.90;;;;;;5045312;28;20481;-74
2023/05/14 04:45:25;;;;;;;10.35;6.97;;;13.60;99.90;;;;;;5041173;28;20056;-77
2023/05/14 04:47:54;;;;;;;9.98;6.45;;;13.70;99.90;;;;;;5040768;28;20620;-75
2023/05/14 04:50:22;;;;;;;10.48;6.20;;;13.80;99.90;;;;;;5040300;28;20513;-76
2023/05/14 04:52:49;;;;;;;9.18;5.90;;;13.80;99.90;;;;;;5039002;28;20516;-75
2023/05/14 04:55:17;;;;;;;12.10;6.22;;;13.90;99.90;;;;;;5040147;28;20695;-76
2023/05/14 04:57:44;;;;;;;13.82;7.53;;;13.90;99.90;;;;;;5039268;28;20132;-75
2023/05/14 05:00:13;;;;;;;10.15;6.72;;;13.90;99.90;;;;;;5039603;28;20506;-76
2023/05/14 05:02:40;;;;;;;8.85;7.32;;;13.90;99.90;;;;;;5039728;28;20053;-77
2023/05/14 05:05:10;;;;;;;23.35;8.45;;;14.00;99.90;;;;;;5039500;28;20037;-76
2023/05/14 05:07:37;;;;;;;9.57;6.55;;;14.00;99.90;;;;;;5039859;28;20045;-77
2023/05/14 05:10:06;;;;;;;16.08;5.90;;;14.20;99.90;;;;;;5037750;28;20041;-77
2023/05/14 05:12:34;;;;;;;7.60;6.25;;;14.30;99.90;;;;;;5043002;28;20046;-77
2023/05/14 05:15:01;;;;;;;8.23;6.40;;;14.40;99.90;;;;;;5051712;28;20100;-77
2023/05/14 05:17:29;;;;;;;11.10;6.68;;;14.50;99.90;;;;;;5053497;28;20101;-77
2023/05/14 05:19:57;;;;;;;10.30;7.22;;;14.70;99.90;;;;;;5047350;28;20059;-76
2023/05/14 05:22:26;;;;;;;9.63;6.85;;;14.70;99.90;;;;;;5039436;28;20401;-76
2023/05/14 05:24:54;;;;;;;8.95;6.68;;;14.80;99.90;;;;;;5039552;28;20127;-75
2023/05/14 05:27:21;;;;;;;10.43;7.15;;;14.90;99.90;;;;;;5040424;28;20044;-76
2023/05/14 05:29:48;;;;;;;10.82;7.00;;;14.90;99.90;;;;;;5037962;28;20049;-78
2023/05/14 05:32:16;;;;;;;9.43;6.03;;;14.90;99.90;;;;;;5038290;28;20048;-76
2023/05/14 05:34:44;;;;;;;10.32;6.57;;;14.90;99.90;;;;;;5040959;28;20037;-76
2023/05/14 05:37:13;;;;;;;9.02;6.43;;;15.00;99.90;;;;;;5040276;28;20051;-76
2023/05/14 05:39:42;;;;;;;9.43;6.32;;;15.00;99.90;;;;;;5043683;28;20041;-76
2023/05/14 05:42:09;;;;;;;7.22;5.88;;;15.00;99.90;;;;;;5023398;28;20053;-75
2023/05/14 05:44:37;;;;;;;11.48;6.05;;;15.00;99.90;;;;;;5042693;28;20041;-74
2023/05/14 05:47:05;;;;;;;9.15;6.30;;;15.00;99.90;;;;;;5031475;28;20454;-76
2023/05/14 05:49:32;;;;;;;9.13;5.90;;;15.00;99.90;;;;;;5048087;28;20045;-75
2023/05/14 05:52:00;;;;;;;6.50;5.90;;;14.90;99.90;;;;;;5048423;28;20041;-77
2023/05/14 05:54:27;;;;;;;8.48;5.57;;;14.90;99.90;;;;;;5042502;28;20047;-75
2023/05/14 05:56:56;;;;;;;7.63;5.15;;;15.10;99.90;;;;;;5042008;28;20045;-75
2023/05/14 05:59:24;;;;;;;7.18;5.25;;;15.10;99.90;;;;;;5038978;28;20056;-76
2023/05/14 06:01:51;;;;;;;7.78;6.10;;;15.20;99.90;;;;;;5037601;28;20046;-77
2023/05/14 06:04:19;;;;;;;8.57;6.28;;;15.30;99.90;;;;;;5038177;28;20037;-76
2023/05/14 06:06:47;;;;;;;8.07;6.15;;;15.40;99.90;;;;;;5037597;28;20037;-76
2023/05/14 06:09:14;;;;;;;9.13;6.28;;;15.50;99.90;;;;;;5036692;28;20489;-76
2023/05/14 06:11:42;;;;;;;10.18;5.47;;;15.50;99.90;;;;;;5019134;28;20045;-76
2023/05/14 06:14:11;;;;;;;8.10;5.75;;;15.50;99.90;;;;;;5037208;28;20052;-77
2023/05/14 06:16:38;;;;;;;9.15;6.15;;;15.60;99.90;;;;;;5037395;28;20037;-76
2023/05/14 06:19:07;;;;;;;7.30;5.72;;;15.50;99.90;;;;;;5038855;28;20037;-76
2023/05/14 06:21:34;;;;;;;8.25;5.40;;;15.40;99.90;;;;;;5039387;28;20052;-78
2023/05/14 06:24:02;;;;;;;7.25;5.95;;;15.40;99.90;;;;;;5037495;28;20131;-78
2023/05/14 06:26:29;;;;;;;9.13;5.95;;;15.40;99.90;;;;;;5039209;28;20099;-77
2023/05/14 06:28:58;;;;;;;8.23;5.53;;;15.40;99.90;;;;;;5038943;28;20103;-78
2023/05/14 06:31:26;;;;;;;9.63;5.32;;;15.30;99.90;;;;;;5036584;28;20161;-76
2023/05/14 06:33:54;;;;;;;8.30;5.38;;;15.30;99.90;;;;;;5039560;28;20049;-76
2023/05/14 06:36:21;;;;;;;7.97;5.43;;;15.30;99.90;;;;;;5035549;28;20396;-77
2023/05/14 06:38:48;;;;;;;7.72;5.25;;;15.30;99.90;;;;;;5036976;28;20038;-76
2023/05/14 06:41:16;;;;;;;8.55;5.80;;;15.40;99.90;;;;;;5038363;28;20628;-76
2023/05/14 06:43:44;;;;;;;8.25;6.30;;;15.30;99.90;;;;;;5035450;28;20049;-75
2023/05/14 06:46:12;;;;;;;10.27;6.45;;;15.40;99.90;;;;;;5038834;28;20692;-76
2023/05/14 06:48:41;;;;;;;9.43;7.20;;;15.50;99.90;;;;;;5052906;28;20049;-76
2023/05/14 06:51:09;;;;;;;8.40;6.40;;;15.60;99.90;;;;;;5052126;28;20132;-75
2023/05/14 06:53:37;;;;;;;11.35;6.68;;;15.70;99.90;;;;;;5038172;28;20049;-75
2023/05/14 06:56:04;;;;;;;8.40;6.45;;;16.10;99.90;;;;;;5037492;28;20033;-77
2023/05/14 06:58:32;;;;;;;8.35;5.65;;;17.00;99.90;;;;;;5036413;28;20041;-78
2023/05/14 07:01:00;;;;;;;7.28;5.28;;;17.60;99.90;;;;;;5035661;28;20400;-76
2023/05/14 07:03:27;;;;;;;8.82;6.47;;;18.20;99.90;;;;;;5037132;28;20057;-75
2023/05/14 07:05:57;;;;;;;12.13;8.80;;;18.50;99.90;;;;;;5021787;28;20042;-74
2023/05/14 07:08:24;;;;;;;6.28;5.25;;;19.00;99.90;;;;;;5036825;28;20052;-76
2023/05/14 07:10:52;;;;;;;8.40;6.10;;;19.60;99.90;;;;;;5037437;28;20131;-75
2023/05/14 07:13:19;;;;;;;7.85;4.80;;;19.80;99.90;;;;;;5036711;28;20498;-76
2023/05/14 07:15:47;;;;;;;7.65;5.03;;;20.20;99.90;;;;;;5039464;28;20050;-76
2023/05/14 07:18:14;;;;;;;9.13;5.38;;;20.30;99.90;;;;;;5037345;28;20043;-77
2023/05/14 07:20:41;;;;;;;6.90;4.78;;;20.20;99.90;;;;;;5037866;28;20033;-75
2023/05/14 07:23:10;;;;;;;12.50;5.13;;;19.80;99.90;;;;;;5037473;28;20048;-76
2023/05/14 07:25:37;;;;;;;8.85;4.30;;;19.60;99.90;;;;;;5038677;28;20045;-76
2023/05/14 07:28:06;;;;;;;5.35;3.70;;;19.90;99.90;;;;;;5036862;28;20037;-76
2023/05/14 07:30:33;;;;;;;7.45;4.15;;;20.40;99.90;;;;;;5037909;28;20557;-73
2023/05/14 07:33:00;;;;;;;7.38;4.05;;;20.60;99.90;;;;;;5038500;28;20675;-75
2023/05/14 07:35:28;;;;;;;6.43;4.07;;;20.50;99.90;;;;;;5037673;28;20038;-77
2023/05/14 07:37:55;;;;;;;7.78;4.40;;;20.40;99.90;;;;;;5016726;28;20401;-76
2023/05/14 07:40:24;;;;;;;5.82;3.60;;;20.20;99.90;;;;;;5035566;28;20037;-77
2023/05/14 07:42:52;;;;;;;22.42;4.47;;;20.40;99.90;;;;;;5037493;28;20033;-76
2023/05/14 07:45:20;;;;;;;6.63;4.28;;;20.80;1.00;;;;;;5033708;28;20973;-76
2023/05/14 07:47:50;;;;;;;6.03;3.83;;;21.10;1.00;;;;;;5036917;28;20057;-77
2023/05/14 07:50:18;;;;;;;6.85;5.20;;;21.20;1.00;;;;;;5035992;28;20504;-76
2023/05/14 07:52:45;;;;;;;9.10;4.65;;;21.00;1.00;;;;;;5034796;28;20044;-75
2023/05/14 07:55:13;;;;;;;7.45;5.07;;;21.00;1.00;;;;;;5017370;28;20682;-78
2023/05/14 07:57:42;;;;;;;7.82;4.25;;;20.80;1.00;;;;;;5036594;28;20041;-76
2023/05/14 08:00:11;;;;;;;7.25;4.10;;;20.90;1.00;;;;;;5018787;28;20570;-77
2023/05/14 08:02:41;;;;;;;8.18;4.60;;;21.30;22.50;;;;;;5041325;28;20052;-76
2023/05/14 08:05:09;;;;;;;11.48;5.13;;;21.20;1.00;;;;;;5042193;28;20497;-76
2023/05/14 08:07:36;;;;;;;6.13;4.10;;;21.20;1.00;;;;;;5038648;28;20041;-76
2023/05/14 08:10:05;;;;;;;6.68;4.18;;;21.30;1.00;;;;;;5043390;28;20045;-76
2023/05/14 08:12:33;;;;;;;8.30;4.10;;;21.30;1.00;;;;;;5041659;28;20627;-75
2023/05/14 08:15:02;;;;;;;10.20;3.55;;;21.60;1.00;;;;;;5039463;28;20036;-76
2023/05/14 08:17:29;;;;;;;9.85;4.10;;;21.90;1.00;;;;;;5041571;28;20447;-75
2023/05/14 08:19:57;;;;;;;5.05;4.03;;;21.70;1.00;;;;;;5041610;28;20084;-76
2023/05/14 08:22:24;;;;;;;5.47;3.65;;;21.50;1.00;;;;;;5043040;28;20132;-75
2023/05/14 08:24:51;;;;;;;5.63;3.75;;;21.10;1.00;;;;;;5040908;28;20060;-75
2023/05/14 08:27:20;;;;;;;6.25;3.58;;;21.00;1.10;;;;;;5040204;28;20052;-77
2023/05/14 08:29:48;;;;;;;5.80;3.50;;;21.20;26.00;;;;;;5038650;28;20037;-76
2023/05/14 08:32:17;;;;;;;4.38;3.35;;;21.40;1.00;;;;;;5041130;28;20128;-78
2023/05/14 08:34:44;;;;;;;5.97;3.63;;;21.50;9.90;;;;;;5045506;28;20061;-75
2023/05/14 08:37:12;;;;;;;30.20;20.55;;;21.80;1.00;;;;;;5023617;28;20041;-76
2023/05/14 08:39:39;;;;;;;6.70;3.80;;;22.00;1.00;;;;;;5042689;28;20126;-76
2023/05/14 08:42:07;;;;;;;5.00;3.38;;;22.20;1.00;;;;;;5041227;28;20057;-77
2023/05/14 08:44:42;;;;;;;4.53;3.17;;;22.70;1.00;;;;;;5022964;28;20049;-74
2023/05/14 08:47:12;;;;;;;8.37;4.27;;;22.70;1.00;;;;;;5039441;28;20045;-72
2023/05/14 08:49:43;;;;;;;5.50;3.78;;;22.50;1.00;;;;;;5039074;28;20114;-73
2023/05/14 08:52:11;;;;;;;5.50;3.33;;;22.60;1.00;;;;;;5041065;28;20040;-74
2023/05/14 08:54:38;;;;;;;6.78;3.72;;;22.70;1.00;;;;;;5021951;28;20049;-75
2023/05/14 08:57:09;;;;;;;8.73;4.45;;;22.60;1.00;;;;;;5040971;28;20052;-74
2023/05/14 08:59:36;;;;;;;7.20;3.80;;;22.20;1.00;;;;;;5021870;28;20049;-74
2023/05/14 09:02:06;;;;;;;5.53;3.67;;;22.30;1.00;;;;;;5041046;28;20052;-74
2023/05/14 09:04:34;;;;;;;6.18;3.55;;;22.40;1.00;;;;;;5040748;28;20099;-74
2023/05/14 09:07:03;;;;;;;6.65;3.40;;;22.60;1.00;;;;;;5039445;28;20041;-73
2023/05/14 09:09:33;;;;;;;5.63;3.63;;;22.70;1.00;;;;;;5037375;28;20040;-75
2023/05/14 09:12:02;;;;;;;6.75;3.55;;;22.40;1.00;;;;;;5037583;28;20245;-75
2023/05/14 09:14:29;;;;;;;5.30;3.20;;;22.50;1.00;;;;;;5040026;28;20129;-74
2023/05/14 09:16:56;;;;;;;7.18;3.83;;;22.90;1.00;;;;;;5041334;28;20405;-75
2023/05/14 09:19:24;;;;;;;7.15;4.20;;;23.10;1.00;;;;;;5040192;28;20042;-74
2023/05/14 09:21:52;;;;;;;6.10;4.00;;;23.10;1.00;;;;;;5040383;28;20049;-76
2023/05/14 09:24:21;;;;;;;6.55;2.95;;;23.30;1.00;;;;;;5039657;28;20045;-75
2023/05/14 09:26:51;;;;;;;7.22;3.55;;;23.20;1.00;;;;;;5020837;28;20067;-75
2023/05/14 09:29:18;;;;;;;7.95;3.30;;;23.10;1.00;;;;;;5038882;28;20037;-75
2023/05/14 09:31:46;;;;;;;8.00;4.28;;;23.20;1.00;;;;;;5041043;28;20525;-75
2023/05/14 09:34:24;;;;;;;6.45;3.30;;;23.20;1.00;;;;;;5023735;28;20413;-75
2023/05/14 09:36:56;;;;;;;4.35;3.35;;;23.60;1.00;;;;;;5039344;28;20489;-75
2023/05/14 09:39:26;;;;;;;5.60;3.42;;;23.40;1.00;;;;;;5039227;28;20501;-75
2023/05/14 09:41:54;;;;;;;6.90;3.10;;;22.70;1.00;;;;;;5038346;28;20037;-74
2023/05/14 09:44:23;;;;;;;4.65;3.25;;;22.50;1.00;;;;;;5040453;28;20135;-76
2023/05/14 09:46:51;;;;;;;7.60;4.95;;;22.20;1.00;;;;;;5039146;28;20124;-74
2023/05/14 09:49:18;;;;;;;7.13;3.90;;;22.20;1.00;;;;;;5040159;28;20050;-76
2023/05/14 09:51:48;;;;;;;8.95;4.85;;;22.20;12.50;;;;;;5039801;28;20059;-74
2023/05/14 09:54:16;;;;;;;9.35;3.92;;;22.30;3.20;;;;;;5042857;28;20068;-74
2023/05/14 09:56:45;;;;;;;7.38;3.33;;;22.20;4.20;;;;;;5045196;28;20086;-74
2023/05/14 09:59:12;;;;;;;6.68;3.47;;;22.20;15.30;;;;;;5039938;28;20050;-75
2023/05/14 10:01:42;;;;;;;4.28;3.08;;;22.10;35.90;;;;;;5039703;28;20401;-77
2023/05/14 10:04:11;;;;;;;6.55;3.40;;;21.90;14.00;;;;;;5021613;28;20134;-75
2023/05/14 10:06:40;;;;;;;9.52;3.53;;;21.70;29.30;;;;;;5038499;28;20990;-75
2023/05/14 10:09:12;;;;;;;9.07;3.47;;;22.00;24.20;;;;;;5038423;28;20627;-75
2023/05/14 10:11:45;;;;;;;8.45;3.58;;;22.30;6.50;;;;;;5022798;28;20046;-73
2023/05/14 10:14:18;;;;;;;8.88;3.53;;;22.30;3.50;;;;;;5040146;28;20045;-74
2023/05/14 10:16:49;;;;;;;6.45;3.72;;;22.30;7.60;;;;;;5043510;28;20037;-76
2023/05/14 10:19:18;;;;;;;6.95;3.33;;;22.30;1.00;;;;;;5047735;28;20083;-75
2023/05/14 10:21:48;;;;;;;9.82;5.18;;;22.50;1.00;;;;;;5049540;28;20042;-78
2023/05/14 10:24:17;;;;;;;8.40;3.58;;;22.90;1.00;;;;;;5039745;28;20111;-76
2023/05/14 10:26:46;;;;;;;8.60;4.22;;;23.20;1.00;;;;;;5040573;28;20034;-75
2023/05/14 10:29:14;;;;;;;6.03;3.65;;;23.40;1.00;;;;;;5039516;28;20409;-74
2023/05/14 10:31:50;;;;;;;7.45;3.70;;;23.80;1.00;;;;;;5040100;28;20037;-75
2023/05/14 10:34:36;;;;;;;9.15;3.95;;;23.80;1.00;;;;;;5040473;28;20136;-76
2023/05/14 10:37:03;;;;;;;;;;;23.90;1.00;;;;;;5040099;28;20046;-76
2023/05/14 10:39:42;;;;;;;8.48;3.45;;;23.70;1.00;;;;;;5039392;28;19925;-75
2023/05/14 10:42:11;;;;;;;7.53;4.40;;;23.70;1.00;;;;;;5037686;28;20049;-75
2023/05/14 10:44:47;;;;;;;6.80;2.90;;;23.30;1.00;;;;;;5039029;28;20091;-76
2023/05/14 10:47:15;;;;;;;9.65;3.10;;;23.10;1.00;;;;;;5039877;28;20504;-76
2023/05/14 10:49:44;;;;;;;6.40;3.08;;;23.10;1.00;;;;;;5037840;28;20041;-76
2023/05/14 10:52:12;;;;;;;10.18;3.65;;;23.10;1.00;;;;;;5037606;28;20917;-76
2023/05/14 10:54:39;;;;;;;5.45;3.30;;;23.00;1.00;;;;;;5019392;28;20064;-76
2023/05/14 10:57:11;;;;;;;4.68;3.22;;;23.10;1.00;;;;;;5039579;28;20064;-76
2023/05/14 10:59:42;;;;;;;10.23;4.88;;;22.80;1.00;;;;;;5038508;28;20493;-74
2023/05/14 11:02:21;;;;;;;9.60;3.25;;;23.00;1.00;;;;;;5037397;28;20390;-77
2023/05/14 11:04:54;;;;;;;14.10;3.83;;;23.30;1.00;;;;;;5040427;28;20071;-75
2023/05/14 11:07:25;;;;;;;8.75;5.03;;;23.80;1.00;;;;;;5037921;28;20494;-74
2023/05/14 11:09:53;;;;;;;9.40;3.42;;;23.70;1.00;;;;;;5038577;28;20493;-75
2023/05/14 11:12:22;;;;;;;9.38;4.03;;;23.80;1.00;;;;;;5039205;28;20048;-75
2023/05/14 11:14:51;;;;;;;9.02;3.20;;;23.80;1.00;;;;;;5041823;28;20051;-76
2023/05/14 11:17:18;;;;;;;7.05;3.30;;;23.90;1.00;;;;;;5040188;28;20041;-74
2023/05/14 11:19:46;;;;;;;9.77;3.03;;;23.90;1.00;;;;;;5039995;28;20125;-74
2023/05/14 11:22:13;;;;;;;8.10;3.10;;;24.00;1.00;;;;;;5038570;28;20037;-76
2023/05/14 11:24:41;;;;;;;7.35;2.95;;;23.70;1.00;;;;;;5038303;28;20045;-74
2023/05/14 11:27:09;;;;;;;8.07;2.80;;;23.60;1.00;;;;;;5037894;28;20083;-73
2023/05/14 11:29:38;;;;;;;6.57;2.70;;;23.50;1.00;;;;;;5039489;28;20393;-75
2023/05/14 11:32:06;;;;;;;8.65;2.80;;;23.30;1.00;;;;;;5037447;28;20043;-74
2023/05/14 11:34:35;;;;;;;8.50;3.00;;;23.00;1.00;;;;;;5037552;28;20041;-76
2023/05/14 11:37:04;;;;;;;6.95;2.92;;;22.80;1.00;;;;;;5050508;28;20048;-74
2023/05/14 11:39:32;;;;;;;5.60;2.63;;;22.60;1.00;;;;;;5052272;28;20041;-75
2023/05/14 11:42:02;;;;;;;10.50;3.00;;;22.40;1.00;;;;;;5040098;28;20055;-75
2023/05/14 11:44:29;;;;;;;6.50;2.92;;;22.80;1.00;;;;;;5039744;28;20049;-76
2023/05/14 11:47:00;;;;;;;7.65;3.15;;;23.40;1.00;;;;;;5038179;28;20045;-76
2023/05/14 11:49:28;;;;;;;11.38;3.35;;;24.10;1.00;;;;;;5039265;28;20048;-74
2023/05/14 11:51:59;;;;;;;7.00;2.80;;;24.40;1.00;;;;;;5039010;28;20051;-75
2023/05/14 11:54:27;;;;;;;8.02;3.33;;;24.70;1.00;;;;;;5020254;28;20049;-75
2023/05/14 11:56:56;;;;;;;10.50;3.88;;;24.80;1.00;;;;;;5035880;28;20041;-75
2023/05/14 11:59:25;;;;;;;7.00;2.90;;;24.70;1.00;;;;;;5039101;28;20067;-75
2023/05/14 12:01:52;;;;;;;7.78;3.30;;;24.70;1.00;;;;;;5019174;28;20467;-74
2023/05/14 12:04:22;;;;;;;10.68;3.20;;;24.60;1.00;;;;;;5039025;28;20045;-75
2023/05/14 12:06:50;;;;;;;9.70;3.38;;;24.80;1.00;;;;;;5036813;28;20045;-75
2023/05/14 12:09:18;;;;;;;7.88;3.45;;;25.10;1.00;;;;;;5037749;28;20041;-75
2023/05/14 12:11:45;;;;;;;8.80;3.60;;;25.40;1.00;;;;;;5037867;28;20041;-74
2023/05/14 12:14:16;;;;;;;9.30;3.00;;;25.40;1.00;;;;;;5021628;28;20073;-76
2023/05/14 12:16:45;;;;;;;11.88;3.35;;;25.30;1.00;;;;;;5042446;28;20547;-76
2023/05/14 12:19:14;;;;;;;8.57;3.47;;;25.20;1.00;;;;;;5039896;28;20034;-75
2023/05/14 12:21:49;;;;;;;7.70;3.35;;;24.80;1.00;;;;;;5051193;28;20049;-74
2023/05/14 12:24:19;;;;;;;10.05;3.17;;;24.70;1.00;;;;;;5046182;28;20093;-76
2023/05/14 12:26:48;;;;;;;8.32;3.00;;;24.50;1.00;;;;;;5040042;28;20477;-78
2023/05/14 12:29:16;;;;;;;7.90;3.10;;;24.20;1.00;;;;;;5041020;28;20622;-76
2023/05/14 12:31:47;;;;;;;8.88;4.13;;;24.00;1.00;;;;;;5040335;28;20656;-74
2023/05/14 12:34:15;;;;;;;11.82;4.00;;;23.80;1.00;;;;;;5037644;28;20060;-76
2023/05/14 12:36:45;;;;;;;12.30;5.00;;;23.70;1.00;;;;;;5039142;28;20071;-75
2023/05/14 12:39:13;;;;;;;13.23;5.25;;;23.90;1.00;;;;;;5036062;28;20049;-74
2023/05/14 12:41:40;;;;;;;12.25;4.13;;;24.10;1.00;;;;;;5040092;28;20512;-74
2023/05/14 12:44:07;;;;;;;10.70;4.00;;;24.30;1.00;;;;;;5039988;28;20413;-75
2023/05/14 12:46:35;;;;;;;7.95;3.47;;;24.40;1.00;;;;;;5040732;28;20048;-75
2023/05/14 12:49:03;;;;;;;13.45;4.82;;;24.20;1.00;;;;;;5040381;28;20037;-73